Time;durP1;ratioP1;P1;durP2;ratioP2;P2;SDS_P1;SDS_P2;PMS_P1;PMS_P2;Temp;Humidity;BMP_temperature;BMP_pressure;BME280_temperature;BME280_humidity;BME280_pressure;Samples;Min_cycle;Max_cycle;Signal;HPM_P1;HPM_P2
2023/01/17 06:00:15;;;;;;;10.00;7.23;;;4.20;97.20;;;;;;1714117;28;20249;-67
2023/01/17 06:01:06;;;;;;;18.92;12.60;;;4.20;97.20;;;;;;1714060;28;20214;-67
2023/01/17 06:01:57;;;;;;;25.50;16.87;;;4.20;97.20;;;;;;1713763;28;20319;-66
2023/01/17 06:02:48;;;;;;;22.77;14.35;;;4.20;97.20;;;;;;1713898;28;20456;-67
2023/01/17 06:03:40;;;;;;;19.13;13.23;;;4.20;97.20;;;;;;1713890;28;20245;-68
2023/01/17 06:04:31;;;;;;;13.05;8.82;;;4.20;97.20;;;;;;1713970;28;20217;-67
2023/01/17 06:05:24;;;;;;;17.73;12.82;;;4.20;97.20;;;;;;1714452;28;20268;-68
2023/01/17 06:06:15;;;;;;;26.65;17.67;;;4.20;97.20;;;;;;1713709;28;20206;-67
2023/01/17 06:07:06;;;;;;;22.80;16.00;;;4.20;97.20;;;;;;1714237;28;20249;-68
2023/01/17 06:07:58;;;;;;;19.60;13.35;;;4.20;97.20;;;;;;1714214;28;20202;-67
2023/01/17 06:08:50;;;;;;;17.00;11.38;;;4.20;97.20;;;;;;1714569;28;20683;-67
2023/01/17 06:09:41;;;;;;;20.48;13.13;;;4.20;97.20;;;;;;1714347;28;20213;-66
2023/01/17 06:10:33;;;;;;;14.43;11.70;;;4.20;97.20;;;;;;1714139;28;20220;-67
2023/01/17 06:11:24;;;;;;;13.70;9.98;;;4.20;97.20;;;;;;1714159;28;20201;-67
2023/01/17 06:12:16;;;;;;;12.43;8.20;;;4.20;97.20;;;;;;1714193;28;20189;-67
2023/01/17 06:13:08;;;;;;;11.63;8.35;;;4.20;97.20;;;;;;1714429;28;20687;-67
2023/01/17 06:14:00;;;;;;;4.25;3.85;;;4.20;97.20;;;;;;1713960;28;20244;-66
2023/01/17 06:14:51;;;;;;;3.30;2.97;;;4.20;97.20;;;;;;1714179;28;20214;-67
2023/01/17 06:15:44;;;;;;;3.00;2.80;;;4.20;97.20;;;;;;1713597;28;20206;-68
2023/01/17 06:16:35;;;;;;;5.20;4.70;;;4.10;97.20;;;;;;1714007;28;20209;-67
2023/01/17 06:17:26;;;;;;;7.00;5.47;;;4.10;97.20;;;;;;1713729;28;20201;-66
2023/01/17 06:18:17;;;;;;;9.45;6.30;;;4.10;97.20;;;;;;1713970;28;20975;-67
2023/01/17 06:19:09;;;;;;;5.90;5.15;;;4.10;97.20;;;;;;1714219;28;20679;-67
2023/01/17 06:20:00;;;;;;;6.65;5.93;;;4.10;97.20;;;;;;1713917;28;20201;-67
2023/01/17 06:20:53;;;;;;;6.10;5.50;;;4.10;97.20;;;;;;1713959;28;20229;-67
2023/01/17 06:21:43;;;;;;;4.70;3.95;;;4.10;97.20;;;;;;1713625;28;20824;-67
2023/01/17 06:22:35;;;;;;;6.27;4.30;;;4.10;97.20;;;;;;1714019;28;20591;-67
2023/01/17 06:23:27;;;;;;;6.65;5.13;;;4.10;97.20;;;;;;1715223;28;20660;-67
2023/01/17 06:24:19;;;;;;;5.65;4.20;;;4.10;97.20;;;;;;1714340;28;20249;-67
2023/01/17 06:25:10;;;;;;;4.60;3.70;;;4.10;97.20;;;;;;1714065;28;20208;-67
2023/01/17 06:26:03;;;;;;;4.30;3.85;;;4.10;97.20;;;;;;1713497;28;20248;-67
2023/01/17 06:26:54;;;;;;;6.63;4.50;;;4.10;97.20;;;;;;1713791;28;20209;-67
2023/01/17 06:27:45;;;;;;;6.17;5.30;;;4.10;97.20;;;;;;1713791;28;20280;-67
2023/01/17 06:28:36;;;;;;;5.85;4.72;;;4.10;97.20;;;;;;1713940;28;20213;-67
2023/01/17 06:29:28;;;;;;;5.20;4.70;;;4.10;97.20;;;;;;1714037;28;20201;-67
2023/01/17 06:30:19;;;;;;;3.97;3.28;;;4.10;97.20;;;;;;1713790;28;20217;-67
2023/01/17 06:31:12;;;;;;;4.90;3.80;;;4.10;97.20;;;;;;1714008;28;20208;-67
2023/01/17 06:32:03;;;;;;;4.25;3.65;;;4.10;97.20;;;;;;1713751;28;20198;-67
2023/01/17 06:32:55;;;;;;;4.25;3.70;;;4.10;97.20;;;;;;1713580;28;20204;-67
2023/01/17 06:33:45;;;;;;;4.10;3.20;;;4.20;97.20;;;;;;1713433;28;20198;-66
2023/01/17 06:34:37;;;;;;;5.73;5.13;;;4.10;97.20;;;;;;1713966;28;20296;-67
2023/01/17 06:35:28;;;;;;;4.45;4.05;;;4.20;97.20;;;;;;1713915;28;20210;-67
2023/01/17 06:36:20;;;;;;;4.18;3.85;;;4.20;97.20;;;;;;1713332;28;20206;-67
2023/01/17 06:37:11;;;;;;;4.35;3.95;;;4.20;97.20;;;;;;1713611;28;20209;-67
2023/01/17 06:38:03;;;;;;;4.83;4.33;;;4.20;97.20;;;;;;1713893;28;20211;-67
2023/01/17 06:38:54;;;;;;;5.07;4.68;;;4.20;97.20;;;;;;1714014;28;20209;-67
2023/01/17 06:39:46;;;;;;;5.90;4.73;;;4.10;97.20;;;;;;1713905;28;20197;-67
2023/01/17 06:40:36;;;;;;;5.75;5.15;;;4.10;97.20;;;;;;1713846;28;20233;-67
2023/01/17 06:41:28;;;;;;;4.20;3.80;;;4.20;97.20;;;;;;1713970;28;20200;-67
2023/01/17 06:42:19;;;;;;;4.03;3.25;;;4.20;97.20;;;;;;1713653;28;20221;-67
2023/01/17 06:43:11;;;;;;;3.10;2.80;;;4.10;97.20;;;;;;1714006;28;20202;-67
2023/01/17 06:44:01;;;;;;;3.45;3.15;;;4.10;97.20;;;;;;1713905;28;20216;-67
2023/01/17 06:44:53;;;;;;;3.33;2.73;;;4.10;97.20;;;;;;1713906;28;20208;-67
2023/01/17 06:45:45;;;;;;;3.17;2.88;;;4.10;97.20;;;;;;1713369;28;20445;-67
2023/01/17 06:46:37;;;;;;;4.18;3.30;;;4.10;97.20;;;;;;1713655;28;20205;-67
2023/01/17 06:47:29;;;;;;;3.20;2.90;;;4.10;97.20;;;;;;1713777;28;20668;-67
2023/01/17 06:48:19;;;;;;;3.13;2.90;;;4.10;97.20;;;;;;1713819;28;20221;-67
2023/01/17 06:49:11;;;;;;;3.60;2.73;;;4.00;97.20;;;;;;1713919;28;20197;-66
2023/01/17 06:50:02;;;;;;;5.25;2.42;;;4.00;97.20;;;;;;1713578;28;20205;-68
2023/01/17 06:50:54;;;;;;;2.33;2.13;;;4.00;97.20;;;;;;1713363;28;20225;-67
2023/01/17 06:51:44;;;;;;;1.98;1.88;;;4.00;97.20;;;;;;1713865;28;20449;-67
2023/01/17 06:52:36;;;;;;;2.27;1.70;;;4.00;97.20;;;;;;1713922;28;20200;-67
2023/01/17 06:53:28;;;;;;;1.83;1.40;;;4.00;97.20;;;;;;1713890;28;20213;-67
2023/01/17 06:54:18;;;;;;;2.28;1.88;;;4.00;97.20;;;;;;1713881;28;20692;-67
2023/01/17 06:55:10;;;;;;;1.70;1.60;;;4.00;97.20;;;;;;1713880;28;20753;-67
2023/01/17 06:56:01;;;;;;;2.13;1.58;;;4.00;97.20;;;;;;1713247;28;20232;-67
2023/01/17 06:56:53;;;;;;;3.13;1.60;;;4.00;97.20;;;;;;1713610;28;20231;-67
2023/01/17 06:57:44;;;;;;;3.35;2.53;;;4.00;97.20;;;;;;1713518;28;20947;-67
2023/01/17 06:58:36;;;;;;;2.83;2.27;;;3.90;97.20;;;;;;1713810;28;20563;-66
2023/01/17 06:59:26;;;;;;;3.35;2.45;;;3.90;97.20;;;;;;1713931;28;20210;-67
2023/01/17 07:00:19;;;;;;;2.33;1.90;;;3.90;97.20;;;;;;1713463;28;20213;-67
2023/01/17 07:01:11;;;;;;;2.63;2.15;;;3.90;97.20;;;;;;1713846;28;20209;-67
2023/01/17 07:02:04;;;;;;;4.15;2.20;;;3.90;97.20;;;;;;1713656;28;20213;-67
2023/01/17 07:02:55;;;;;;;3.88;2.75;;;3.90;97.20;;;;;;1713840;28;20221;-67
2023/01/17 07:03:46;;;;;;;2.70;2.20;;;3.80;97.20;;;;;;1713801;28;20208;-67
2023/01/17 07:04:37;;;;;;;3.00;1.75;;;3.80;97.20;;;;;;1713662;28;20690;-68
2023/01/17 07:05:29;;;;;;;3.37;2.20;;;3.90;97.20;;;;;;1713836;28;20564;-67
2023/01/17 07:06:20;;;;;;;2.95;2.60;;;3.90;97.20;;;;;;1713180;28;20616;-67
2023/01/17 07:07:12;;;;;;;4.87;2.57;;;3.90;97.20;;;;;;1713589;28;20255;-66
2023/01/17 07:08:03;;;;;;;4.22;2.80;;;3.90;97.20;;;;;;1713635;28;20201;-67
2023/01/17 07:08:55;;;;;;;3.72;3.30;;;3.90;97.20;;;;;;1713726;28;20293;-67
2023/01/17 07:09:46;;;;;;;4.40;3.42;;;3.90;97.20;;;;;;1713841;28;20214;-67
2023/01/17 07:10:37;;;;;;;7.33;3.77;;;3.90;97.20;;;;;;1713357;28;20288;-67
2023/01/17 07:11:28;;;;;;;3.97;3.20;;;3.90;97.20;;;;;;1713862;28;20231;-67
2023/01/17 07:12:20;;;;;;;4.70;3.90;;;3.90;97.20;;;;;;1713705;28;20193;-67
2023/01/17 07:13:11;;;;;;;4.90;3.63;;;3.90;97.20;;;;;;1713858;28;20206;-67
2023/01/17 07:14:03;;;;;;;4.22;3.53;;;3.90;97.20;;;;;;1713769;28;20210;-67
2023/01/17 07:14:54;;;;;;;4.85;3.47;;;3.90;97.20;;;;;;1713792;28;20206;-67
2023/01/17 07:15:45;;;;;;;4.47;3.70;;;3.90;97.20;;;;;;1713317;28;20197;-67
2023/01/17 07:16:36;;;;;;;4.32;3.58;;;3.90;97.20;;;;;;1713634;28;20213;-67
2023/01/17 07:17:29;;;;;;;4.23;3.83;;;3.90;97.20;;;;;;1713626;28;20208;-67
2023/01/17 07:18:22;;;;;;;4.43;3.70;;;4.00;97.20;;;;;;1713697;28;20210;-67
2023/01/17 07:19:13;;;;;;;3.88;3.05;;;4.00;97.20;;;;;;1713701;28;20210;-67
2023/01/17 07:20:05;;;;;;;3.97;2.88;;;4.00;97.20;;;;;;1713620;28;20210;-67
2023/01/17 07:20:57;;;;;;;4.82;3.38;;;4.00;97.20;;;;;;1713250;28;20223;-67
2023/01/17 07:21:49;;;;;;;2.65;2.45;;;4.00;97.20;;;;;;1713764;28;20209;-67
2023/01/17 07:22:44;;;;;;;3.65;2.80;;;4.00;97.20;;;;;;1713562;28;20309;-67
2023/01/17 07:23:35;;;;;;;3.58;3.25;;;4.10;97.20;;;;;;1713784;28;20210;-67
2023/01/17 07:24:27;;;;;;;4.20;3.30;;;4.10;97.20;;;;;;1713754;28;20205;-67
2023/01/17 07:25:18;;;;;;;4.40;3.38;;;4.10;97.20;;;;;;1713749;28;20206;-67
2023/01/17 07:26:10;;;;;;;3.63;2.80;;;4.10;97.20;;;;;;1713289;28;20236;-66
2023/01/17 07:27:01;;;;;;;4.50;3.13;;;4.20;97.20;;;;;;1713551;28;20212;-67
2023/01/17 07:27:56;;;;;;;3.87;3.23;;;4.20;97.20;;;;;;1713615;28;20217;-67
2023/01/17 07:28:46;;;;;;;3.25;2.95;;;4.20;97.20;;;;;;1713837;28;20202;-67
2023/01/17 07:29:38;;;;;;;3.90;2.90;;;4.20;97.20;;;;;;1713757;28;20995;-66
2023/01/17 07:30:29;;;;;;;3.45;3.17;;;4.20;97.20;;;;;;1713385;28;20695;-67
2023/01/17 07:31:21;;;;;;;4.17;3.77;;;4.20;97.20;;;;;;1713635;28;20685;-67
2023/01/17 07:32:11;;;;;;;3.92;3.60;;;4.20;97.20;;;;;;1713706;28;20473;-67
2023/01/17 07:33:05;;;;;;;3.80;3.50;;;4.20;97.20;;;;;;1713736;28;20246;-67
2023/01/17 07:33:55;;;;;;;4.75;3.30;;;4.20;97.20;;;;;;1713659;28;20734;-67
2023/01/17 07:34:47;;;;;;;3.33;3.00;;;4.20;97.20;;;;;;1713713;28;20228;-67
2023/01/17 07:35:39;;;;;;;2.83;2.58;;;4.20;97.20;;;;;;1713160;28;20668;-67
2023/01/17 07:36:30;;;;;;;3.15;2.95;;;4.20;97.20;;;;;;1713764;28;20671;-67
2023/01/17 07:37:21;;;;;;;4.00;3.03;;;4.20;97.20;;;;;;1713491;28;20544;-67
2023/01/17 07:38:14;;;;;;;2.63;2.42;;;4.30;97.20;;;;;;1713654;28;20210;-67
2023/01/17 07:39:06;;;;;;;4.10;3.10;;;4.30;97.20;;;;;;1713635;28;20213;-67
2023/01/17 07:39:57;;;;;;;3.50;3.20;;;4.30;97.20;;;;;;1713782;28;20608;-67
2023/01/17 07:40:48;;;;;;;3.53;3.23;;;4.30;97.20;;;;;;1713459;28;20639;-67
2023/01/17 07:41:40;;;;;;;4.22;3.75;;;4.30;97.20;;;;;;1713605;28;20201;-67
2023/01/17 07:42:31;;;;;;;4.05;3.67;;;4.30;97.20;;;;;;1713629;28;20230;-67
2023/01/17 07:43:22;;;;;;;4.55;3.40;;;4.30;97.20;;;;;;1713734;28;20221;-67
2023/01/17 07:44:15;;;;;;;3.57;3.17;;;4.20;97.20;;;;;;1713842;28;20206;-68
2023/01/17 07:45:07;;;;;;;5.03;3.42;;;4.20;97.20;;;;;;1714548;28;20660;-70
2023/01/17 07:45:59;;;;;;;4.07;3.67;;;4.20;97.20;;;;;;1714422;28;20206;-70
2023/01/17 07:46:49;;;;;;;4.35;3.50;;;4.20;97.20;;;;;;1714880;28;20209;-70
2023/01/17 07:47:41;;;;;;;4.27;3.80;;;4.20;97.20;;;;;;1714855;28;20678;-70
2023/01/17 07:48:33;;;;;;;3.35;2.80;;;4.20;97.20;;;;;;1714905;28;20279;-70
2023/01/17 07:49:25;;;;;;;3.65;3.10;;;4.20;97.20;;;;;;1714931;28;20672;-69
2023/01/17 07:50:16;;;;;;;3.03;2.70;;;4.20;97.20;;;;;;1714760;28;20209;-70
2023/01/17 07:51:09;;;;;;;2.70;2.50;;;4.30;97.20;;;;;;1708420;28;20203;-70
2023/01/17 07:51:59;;;;;;;3.45;2.60;;;4.30;97.20;;;;;;1708156;28;20446;-71
2023/01/17 07:52:53;;;;;;;5.53;3.03;;;4.30;97.20;;;;;;1708355;28;20200;-69
2023/01/17 07:53:44;;;;;;;4.10;3.20;;;4.30;97.20;;;;;;1708236;28;20203;-70
2023/01/17 07:54:35;;;;;;;3.90;3.37;;;4.30;97.20;;;;;;1708318;28;20209;-69
2023/01/17 07:55:27;;;;;;;5.05;4.53;;;4.40;97.20;;;;;;1708227;28;20449;-69
2023/01/17 07:56:19;;;;;;;10.27;5.28;;;4.40;97.20;;;;;;1707704;28;20206;-70
2023/01/17 07:57:10;;;;;;;4.30;3.50;;;4.40;97.20;;;;;;1708112;28;20676;-70
2023/01/17 07:58:02;;;;;;;3.78;3.42;;;4.40;97.20;;;;;;1708148;28;20707;-69
2023/01/17 07:58:53;;;;;;;5.68;3.80;;;4.40;97.20;;;;;;1714980;28;20206;-70
2023/01/17 07:59:45;;;;;;;4.40;3.17;;;4.40;97.20;;;;;;1715229;28;20197;-70
2023/01/17 08:00:35;;;;;;;4.00;3.40;;;4.50;97.20;;;;;;1714566;28;20226;-70
2023/01/17 08:01:28;;;;;;;3.70;3.40;;;4.50;97.20;;;;;;1713673;28;20212;-67
2023/01/17 08:02:22;;;;;;;3.30;3.00;;;4.50;97.20;;;;;;1713243;28;20445;-66
2023/01/17 08:03:16;;;;;;;5.30;3.40;;;4.50;97.20;;;;;;1714697;28;20217;-67
2023/01/17 08:04:09;;;;;;;3.65;3.28;;;4.60;97.20;;;;;;1714777;28;20214;-67
2023/01/17 08:05:00;;;;;;;4.20;3.90;;;4.60;97.20;;;;;;1714590;28;20285;-70
2023/01/17 08:05:54;;;;;;;3.25;2.97;;;4.60;97.20;;;;;;1711406;28;20222;-69
2023/01/17 08:06:50;;;;;;;3.30;3.00;;;4.70;97.20;;;;;;1714340;28;20645;-70
2023/01/17 08:07:43;;;;;;;4.35;3.38;;;4.70;97.20;;;;;;1714102;28;20653;-69
2023/01/17 08:08:35;;;;;;;4.50;3.33;;;4.70;97.20;;;;;;1714450;28;20198;-70
2023/01/17 08:09:26;;;;;;;4.07;3.60;;;4.70;97.20;;;;;;1714760;28;20573;-69
2023/01/17 08:10:18;;;;;;;6.17;4.70;;;4.70;97.20;;;;;;1714375;28;20646;-70
2023/01/17 08:11:09;;;;;;;5.00;4.10;;;4.70;97.20;;;;;;1714512;28;20202;-69
2023/01/17 08:12:01;;;;;;;6.30;3.90;;;4.70;97.20;;;;;;1714662;28;20206;-69
2023/01/17 08:12:51;;;;;;;4.40;4.00;;;4.70;97.20;;;;;;1714781;28;20221;-70
2023/01/17 08:13:43;;;;;;;4.83;4.03;;;4.70;97.20;;;;;;1714748;28;20206;-70
2023/01/17 08:14:34;;;;;;;4.07;3.67;;;4.70;97.20;;;;;;1714739;28;20209;-69
2023/01/17 08:15:26;;;;;;;4.73;3.80;;;4.80;97.20;;;;;;1714598;28;20233;-70
2023/01/17 08:16:16;;;;;;;5.60;4.47;;;4.80;97.20;;;;;;1713655;28;20477;-70
2023/01/17 08:17:11;;;;;;;9.60;6.20;;;4.80;97.20;;;;;;1714529;28;20202;-69
2023/01/17 08:18:02;;;;;;;16.10;13.18;;;4.90;97.20;;;;;;1714544;28;20202;-69
2023/01/17 08:18:55;;;;;;;15.83;12.23;;;4.90;97.20;;;;;;1714184;28;20659;-68
2023/01/17 08:19:50;;;;;;;13.15;9.30;;;4.90;97.20;;;;;;1714668;28;20445;-70
2023/01/17 08:20:43;;;;;;;8.70;7.25;;;5.00;97.20;;;;;;1714604;28;20272;-70
2023/01/17 08:21:35;;;;;;;10.75;7.53;;;5.00;97.20;;;;;;1714612;28;20585;-70
2023/01/17 08:22:28;;;;;;;7.38;6.00;;;5.10;97.20;;;;;;1714665;28;20210;-69
2023/01/17 08:23:21;;;;;;;5.82;5.13;;;5.10;97.20;;;;;;1714540;28;20205;-70
2023/01/17 08:24:12;;;;;;;7.40;5.47;;;5.10;97.20;;;;;;1714741;28;20210;-70
2023/01/17 08:25:04;;;;;;;7.20;5.80;;;5.20;97.20;;;;;;1714616;28;20212;-70
2023/01/17 08:25:59;;;;;;;8.02;6.45;;;5.30;97.20;;;;;;1714043;28;20811;-69
2023/01/17 08:26:53;;;;;;;9.80;7.63;;;5.30;97.20;;;;;;1714210;28;20296;-67
2023/01/17 08:27:44;;;;;;;9.10;6.72;;;5.40;97.20;;;;;;1714524;28;20245;-67
2023/01/17 08:28:36;;;;;;;6.80;4.73;;;5.40;97.20;;;;;;1714366;28;20209;-67
2023/01/17 08:29:26;;;;;;;8.13;5.25;;;5.50;97.20;;;;;;1714697;28;20606;-68
2023/01/17 08:30:18;;;;;;;6.40;4.70;;;5.60;97.20;;;;;;1714461;28;20596;-67
2023/01/17 08:31:09;;;;;;;6.15;4.72;;;5.60;97.20;;;;;;1714431;28;20731;-69
2023/01/17 08:32:01;;;;;;;7.70;5.20;;;5.70;97.20;;;;;;1714462;28;20244;-67
2023/01/17 08:32:52;;;;;;;6.28;5.18;;;5.80;97.20;;;;;;1714644;28;20228;-67
2023/01/17 08:33:44;;;;;;;6.18;4.80;;;5.90;97.20;;;;;;1714591;28;20216;-67
2023/01/17 08:34:34;;;;;;;5.28;4.22;;;6.00;97.20;;;;;;1714594;28;20572;-67
2023/01/17 08:35:28;;;;;;;6.43;4.67;;;6.10;97.20;;;;;;1714589;28;20194;-67
2023/01/17 08:36:18;;;;;;;7.20;4.60;;;6.30;97.20;;;;;;1713628;28;20198;-67
2023/01/17 08:37:10;;;;;;;7.70;4.53;;;6.40;97.20;;;;;;1714228;28;20253;-67
2023/01/17 08:38:03;;;;;;;6.70;3.53;;;6.50;97.20;;;;;;1714460;28;20206;-67
2023/01/17 08:38:55;;;;;;;3.65;2.65;;;6.70;97.20;;;;;;1714128;28;20216;-67
2023/01/17 08:39:46;;;;;;;4.20;3.30;;;6.80;97.20;;;;;;1714635;28;20585;-66
2023/01/17 08:40:37;;;;;;;4.73;3.27;;;6.90;97.20;;;;;;1714462;28;20667;-67
2023/01/17 08:41:28;;;;;;;4.50;3.35;;;7.00;97.20;;;;;;1714497;28;20205;-67
2023/01/17 08:42:20;;;;;;;5.00;4.30;;;7.10;97.20;;;;;;1714587;28;20205;-70
2023/01/17 08:43:11;;;;;;;4.88;3.50;;;7.20;97.20;;;;;;1714498;28;20230;-70
2023/01/17 08:44:02;;;;;;;2.60;2.00;;;7.30;97.20;;;;;;1714518;28;20205;-70
2023/01/17 08:44:53;;;;;;;4.00;2.50;;;7.40;97.20;;;;;;1714528;28;20449;-70
2023/01/17 08:45:47;;;;;;;1.60;1.50;;;7.50;97.20;;;;;;1714079;28;20668;-70
2023/01/17 08:46:38;;;;;;;1.77;1.63;;;7.50;97.20;;;;;;1714026;28;20198;-70
2023/01/17 08:47:30;;;;;;;1.92;1.45;;;7.60;97.20;;;;;;1714469;28;20718;-70
2023/01/17 08:48:22;;;;;;;2.65;1.42;;;7.60;97.20;;;;;;1714228;28;20210;-70
2023/01/17 08:49:13;;;;;;;2.50;2.30;;;7.70;97.20;;;;;;1714579;28;20210;-70
2023/01/17 08:50:06;;;;;;;1.47;1.30;;;7.70;97.20;;;;;;1714614;28;20244;-70
2023/01/17 08:51:00;;;;;;;2.35;1.20;;;7.60;97.20;;;;;;1714328;28;20257;-70
2023/01/17 08:51:52;;;;;;;1.92;1.30;;;7.60;97.20;;;;;;1714708;28;20202;-67
2023/01/17 08:52:43;;;;;;;1.63;1.10;;;7.60;97.20;;;;;;1714397;28;20233;-68
2023/01/17 08:53:34;;;;;;;2.80;1.10;;;7.70;97.20;;;;;;1714481;28;20227;-67
2023/01/17 08:54:25;;;;;;;1.02;0.93;;;7.90;97.20;;;;;;1714607;28;20209;-68
2023/01/17 08:55:17;;;;;;;2.40;1.10;;;8.10;97.20;;;;;;1714362;28;20208;-68
2023/01/17 08:56:08;;;;;;;2.03;1.25;;;8.30;97.20;;;;;;1713267;28;20213;-68
2023/01/17 08:57:02;;;;;;;2.70;1.30;;;8.70;97.20;;;;;;1713722;28;20206;-68
2023/01/17 08:57:53;;;;;;;1.67;1.30;;;9.20;97.20;;;;;;1714393;28;20507;-70
2023/01/17 08:58:44;;;;;;;1.63;1.03;;;9.60;97.20;;;;;;1714208;28;20265;-70
2023/01/17 08:59:35;;;;;;;1.55;1.05;;;9.80;97.20;;;;;;1714406;28;20472;-70
2023/01/17 09:00:28;;;;;;;1.17;1.07;;;10.10;97.20;;;;;;1714235;28;20202;-70
2023/01/17 09:01:19;;;;;;;1.52;1.20;;;10.30;97.20;;;;;;1714278;28;20449;-68
2023/01/17 09:02:13;;;;;;;1.10;0.97;;;10.40;97.20;;;;;;1714486;28;20194;-67
2023/01/17 09:03:09;;;;;;;1.02;0.93;;;10.50;97.20;;;;;;1714207;28;20285;-67
2023/01/17 09:04:02;;;;;;;1.80;1.25;;;10.40;97.20;;;;;;1714362;28;20194;-68
2023/01/17 09:04:53;;;;;;;2.38;1.30;;;10.40;97.20;;;;;;1714364;28;20217;-67
2023/01/17 09:05:44;;;;;;;1.90;1.37;;;10.30;97.20;;;;;;1713918;28;20209;-68
2023/01/17 09:06:38;;;;;;;1.45;1.15;;;10.30;97.20;;;;;;1713967;28;20588;-67
2023/01/17 09:07:29;;;;;;;2.72;1.00;;;10.30;97.20;;;;;;1714118;28;20559;-67
2023/01/17 09:08:21;;;;;;;2.57;1.47;;;10.30;97.20;;;;;;1714187;28;20224;-68
2023/01/17 09:09:12;;;;;;;1.35;1.10;;;10.30;97.20;;;;;;1714322;28;20210;-67
2023/01/17 09:10:04;;;;;;;1.40;1.30;;;10.30;97.20;;;;;;1714548;28;20202;-67
2023/01/17 09:10:55;;;;;;;2.55;1.27;;;10.30;97.20;;;;;;1714295;28;20234;-67
2023/01/17 09:11:47;;;;;;;2.80;1.60;;;10.30;97.20;;;;;;1714262;28;20198;-68
2023/01/17 09:12:39;;;;;;;1.45;1.30;;;10.30;97.20;;;;;;1714328;28;20452;-68
2023/01/17 09:13:31;;;;;;;1.80;1.20;;;10.40;97.20;;;;;;1714401;28;20401;-68
2023/01/17 09:14:22;;;;;;;2.85;1.73;;;10.40;97.20;;;;;;1714327;28;20206;-68
2023/01/17 09:15:16;;;;;;;2.23;1.67;;;10.40;97.20;;;;;;1714323;28;20942;-67
2023/01/17 09:16:08;;;;;;;3.60;1.45;;;10.50;97.20;;;;;;1713783;28;20233;-68
2023/01/17 09:17:00;;;;;;;2.30;1.65;;;10.70;97.20;;;;;;1713918;28;20739;-71
2023/01/17 09:17:54;;;;;;;2.38;1.60;;;11.00;97.20;;;;;;1714217;28;20264;-70
2023/01/17 09:18:46;;;;;;;2.30;1.63;;;11.50;97.20;;;;;;1713940;28;20200;-70
2023/01/17 09:19:38;;;;;;;2.22;1.33;;;12.10;97.20;;;;;;1714235;28;20596;-68
2023/01/17 09:20:30;;;;;;;2.05;1.60;;;12.90;97.20;;;;;;1714230;28;20202;-68
2023/01/17 09:21:21;;;;;;;1.70;1.60;;;14.00;97.20;;;;;;1714334;28;20202;-67
2023/01/17 09:22:15;;;;;;;2.60;1.92;;;15.20;97.20;;;;;;1714409;28;20217;-68
2023/01/17 09:23:06;;;;;;;3.08;2.15;;;16.70;97.20;;;;;;1714084;28;20221;-67
2023/01/17 09:23:57;;;;;;;2.13;1.92;;;18.00;97.20;;;;;;1714240;28;20236;-67
2023/01/17 09:24:49;;;;;;;2.37;1.90;;;19.30;97.20;;;;;;1714082;28;20312;-67
2023/01/17 09:25:43;;;;;;;2.28;2.08;;;20.50;97.20;;;;;;1713523;28;20445;-67
2023/01/17 09:26:35;;;;;;;2.97;2.10;;;21.60;97.20;;;;;;1713901;28;20339;-68
2023/01/17 09:27:26;;;;;;;2.38;1.90;;;22.80;97.20;;;;;;1713785;28;20578;-67
2023/01/17 09:28:17;;;;;;;2.60;2.40;;;23.70;97.20;;;;;;1714158;28;20225;-68
2023/01/17 09:29:10;;;;;;;6.40;2.30;;;24.60;96.30;;;;;;1714177;28;20202;-68
2023/01/17 09:30:01;;;;;;;2.45;1.95;;;25.40;93.90;;;;;;1713964;28;20201;-68
2023/01/17 09:30:53;;;;;;;3.10;2.50;;;25.80;91.50;;;;;;1714012;28;20233;-68
2023/01/17 09:31:46;;;;;;;2.70;2.30;;;26.00;89.40;;;;;;1714217;28;20213;-68
2023/01/17 09:32:37;;;;;;;3.38;2.33;;;26.30;88.40;;;;;;1714177;28;20664;-68
2023/01/17 09:33:28;;;;;;;3.60;2.30;;;26.20;87.90;;;;;;1714341;28;20198;-67
2023/01/17 09:34:20;;;;;;;2.67;2.40;;;26.30;87.00;;;;;;1714502;28;20233;-68
2023/01/17 09:35:12;;;;;;;2.63;2.30;;;26.20;86.30;;;;;;1714062;28;20445;-68
2023/01/17 09:36:04;;;;;;;2.80;2.33;;;26.20;85.80;;;;;;1713508;28;20202;-68
2023/01/17 09:36:55;;;;;;;3.17;1.80;;;26.30;85.30;;;;;;1713890;28;20668;-68
2023/01/17 09:37:50;;;;;;;3.28;2.38;;;26.50;84.90;;;;;;1713909;28;20655;-68
2023/01/17 09:38:41;;;;;;;2.30;2.10;;;26.80;84.00;;;;;;1713891;28;20206;-68
2023/01/17 09:39:33;;;;;;;4.82;2.38;;;27.30;83.70;;;;;;1714331;28;20206;-68
2023/01/17 09:40:26;;;;;;;3.50;2.45;;;27.70;82.60;;;;;;1714009;28;20198;-68
2023/01/17 09:41:22;;;;;;;3.28;2.55;;;27.90;81.80;;;;;;1714132;28;20664;-67
2023/01/17 09:42:21;;;;;;;3.42;2.25;;;27.90;80.60;;;;;;1714239;28;20273;-68
2023/01/17 09:43:23;;;;;;;2.83;2.35;;;27.70;80.20;;;;;;1713926;28;20237;-68
2023/01/17 09:44:25;;;;;;;6.88;2.97;;;26.80;80.30;;;;;;1714165;28;20782;-68
2023/01/17 09:45:18;;;;;;;3.42;2.55;;;25.60;80.50;;;;;;1713924;28;20579;-68
2023/01/17 09:46:21;;;;;;;2.95;2.63;;;24.40;82.00;;;;;;1713450;28;20618;-69
2023/01/17 09:47:18;;;;;;;3.03;2.10;;;23.40;83.80;;;;;;1714062;28;20202;-68
2023/01/17 09:48:20;;;;;;;3.88;2.90;;;22.40;85.90;;;;;;1714050;28;20562;-68
2023/01/17 09:49:23;;;;;;;5.63;2.78;;;21.90;87.80;;;;;;1713991;28;20289;-68
2023/01/17 09:50:30;;;;;;;4.13;3.42;;;22.40;89.00;;;;;;1714000;28;20224;-68
2023/01/17 09:51:23;;;;;;;5.82;3.60;;;23.80;88.00;;;;;;1707481;28;20207;-68
2023/01/17 09:52:19;;;;;;;3.88;3.00;;;25.10;86.40;;;;;;1707483;28;20301;-68
2023/01/17 09:53:14;;;;;;;4.80;3.22;;;26.30;85.00;;;;;;1707482;28;20191;-68
2023/01/17 09:54:17;;;;;;;4.10;3.50;;;27.50;83.10;;;;;;1707562;28;20636;-68
2023/01/17 09:55:14;;;;;;;4.53;3.65;;;28.50;81.40;;;;;;1709209;28;20655;-68
2023/01/17 09:56:09;;;;;;;3.00;2.70;;;29.50;78.40;;;;;;1713424;28;20214;-68
2023/01/17 09:57:08;;;;;;;3.17;2.70;;;30.30;76.40;;;;;;1713883;28;20186;-69
2023/01/17 09:58:03;;;;;;;3.65;2.58;;;31.10;75.40;;;;;;1713835;28;20194;-69
2023/01/17 09:59:11;;;;;;;3.60;2.70;;;31.80;73.40;;;;;;1713683;28;20206;-68
2023/01/17 10:00:11;;;;;;;3.08;2.78;;;32.40;71.80;;;;;;1713942;28;20194;-68
2023/01/17 10:01:14;;;;;;;3.03;2.40;;;33.10;71.10;;;;;;1714197;28;20205;-69
2023/01/17 10:02:19;;;;;;;2.90;2.58;;;33.70;70.50;;;;;;1714209;28;20282;-69
2023/01/17 10:03:32;;;;;;;3.00;2.22;;;;;;;;;;1714106;28;20210;-68
2023/01/17 10:04:41;;;;;;;3.05;2.75;;;35.30;68.10;;;;;;1713965;28;20202;-68
2023/01/17 10:05:41;;;;;;;4.03;2.63;;;35.90;67.00;;;;;;1713975;28;20205;-69
2023/01/17 10:06:48;;;;;;;2.92;2.45;;;36.40;66.40;;;;;;1713836;28;20209;-68
2023/01/17 10:07:49;;;;;;;3.30;2.90;;;36.90;65.70;;;;;;1713759;28;20217;-68
2023/01/17 10:09:06;;;;;;;4.57;3.58;;;37.40;65.30;;;;;;1713627;28;20190;-68
2023/01/17 10:10:15;;;;;;;3.95;3.33;;;38.00;64.40;;;;;;1714086;28;20194;-68
2023/01/17 10:11:20;;;;;;;4.25;3.20;;;38.50;63.70;;;;;;1713481;28;20202;-69
2023/01/17 10:12:21;;;;;;;3.15;2.72;;;38.90;62.90;;;;;;1714060;28;20209;-68
2023/01/17 10:13:27;;;;;;;4.28;2.70;;;39.10;62.00;;;;;;1713964;28;20232;-68
2023/01/17 10:14:45;;;;;;;3.30;2.60;;;39.30;61.50;;;;;;1713983;28;20598;-68
2023/01/17 10:15:55;;;;;;;3.72;2.70;;;39.50;60.20;;;;;;1713458;28;20571;-69
2023/01/17 10:16:53;;;;;;;3.10;2.60;;;39.80;60.30;;;;;;1713720;28;20206;-69
2023/01/17 10:17:56;;;;;;;2.47;2.10;;;40.10;60.20;;;;;;1714221;28;20191;-69
2023/01/17 10:19:10;;;;;;;2.90;2.50;;;40.40;59.50;;;;;;1713535;28;20210;-68
2023/01/17 10:20:19;;;;;;;3.72;2.90;;;40.60;58.20;;;;;;1713863;28;20593;-68
2023/01/17 10:21:16;;;;;;;3.55;2.55;;;40.80;58.40;;;;;;1714059;28;20647;-69
2023/01/17 10:22:29;;;;;;;4.90;2.83;;;40.90;58.10;;;;;;1713960;28;20194;-69
2023/01/17 10:23:42;;;;;;;3.42;3.10;;;41.00;57.50;;;;;;1713912;28;20198;-69
2023/01/17 10:25:05;;;;;;;8.02;4.60;;;41.10;57.10;;;;;;1713920;28;20237;-69
2023/01/17 10:25:59;;;;;;;4.22;3.92;;;41.20;56.80;;;;;;1712938;28;20205;-68
2023/01/17 10:26:53;;;;;;;3.30;2.63;;;41.40;57.60;;;;;;1713795;28;20205;-68
2023/01/17 10:27:51;;;;;;;5.10;4.60;;;41.50;57.20;;;;;;1713774;28;20592;-69
2023/01/17 10:28:45;;;;;;;5.00;4.25;;;41.50;56.60;;;;;;1713483;28;20211;-69
2023/01/17 10:29:37;;;;;;;4.70;4.30;;;41.70;56.80;;;;;;1713770;28;20237;-68
2023/01/17 10:30:33;;;;;;;3.53;3.03;;;41.90;56.90;;;;;;1713662;28;20228;-69
2023/01/17 10:31:27;;;;;;;3.00;2.70;;;42.10;56.20;;;;;;1713815;28;20186;-69
2023/01/17 10:32:21;;;;;;;3.97;2.28;;;42.20;56.00;;;;;;1714020;28;20209;-69
2023/01/17 10:33:18;;;;;;;2.30;2.10;;;42.40;55.80;;;;;;1713860;28;20206;-69
2023/01/17 10:34:15;;;;;;;2.90;2.60;;;42.70;55.70;;;;;;1713977;28;20696;-69
2023/01/17 10:35:19;;;;;;;2.83;2.13;;;42.80;55.30;;;;;;1713832;28;20647;-69
2023/01/17 10:36:19;;;;;;;2.80;2.55;;;43.00;54.60;;;;;;1706739;28;20191;-69
2023/01/17 10:37:17;;;;;;;2.50;2.30;;;43.20;54.60;;;;;;1707139;28;20195;-68
2023/01/17 10:38:13;;;;;;;2.40;2.20;;;43.40;54.30;;;;;;1707387;28;20190;-69
2023/01/17 10:39:14;;;;;;;2.63;1.90;;;43.50;53.70;;;;;;1711560;28;20212;-69
2023/01/17 10:40:16;;;;;;;3.00;2.25;;;43.50;53.20;;;;;;1714073;28;20205;-69
2023/01/17 10:41:15;;;;;;;2.70;2.20;;;43.60;53.30;;;;;;1713882;28;20205;-71